sensor_id;sensor_type;location;lat;lon;timestamp;P1;durP1;ratioP1;P2;durP2;ratioP2
11279;SDS011;5696;50.928;6.960;2022-08-05T05:01:55;24.08;;;21.75;;
11279;SDS011;5696;50.928;6.960;2022-08-05T05:04:22;22.58;;;20.52;;
11279;SDS011;5696;50.928;6.960;2022-08-05T05:06:48;21.73;;;19.73;;
11279;SDS011;5696;50.928;6.960;2022-08-05T05:09:15;24.63;;;22.35;;
11279;SDS011;5696;50.928;6.960;2022-08-05T05:11:41;23.60;;;21.23;;
11279;SDS011;5696;50.928;6.960;2022-08-05T05:14:06;24.88;;;22.45;;
11279;SDS011;5696;50.928;6.960;2022-08-05T05:16:32;74.18;;;68.00;;
11279;SDS011;5696;50.928;6.960;2022-08-05T05:19:10;42.40;;;38.55;;
11279;SDS011;5696;50.928;6.960;2022-08-05T05:21:35;28.65;;;26.15;;
11279;SDS011;5696;50.928;6.960;2022-08-05T05:24:01;31.20;;;28.20;;
11279;SDS011;5696;50.928;6.960;2022-08-05T05:26:27;28.58;;;26.05;;
11279;SDS011;5696;50.928;6.960;2022-08-05T05:28:52;30.65;;;27.90;;
11279;SDS011;5696;50.928;6.960;2022-08-05T05:31:18;30.02;;;27.17;;
11279;SDS011;5696;50.928;6.960;2022-08-05T05:33:43;30.35;;;27.58;;
11279;SDS011;5696;50.928;6.960;2022-08-05T05:36:09;32.97;;;29.67;;
11279;SDS011;5696;50.928;6.960;2022-08-05T05:38:35;31.08;;;28.02;;
11279;SDS011;5696;50.928;6.960;2022-08-05T05:41:00;32.35;;;29.35;;
11279;SDS011;5696;50.928;6.960;2022-08-05T05:43:26;31.95;;;28.77;;
11279;SDS011;5696;50.928;6.960;2022-08-05T05:45:59;31.85;;;28.83;;
11279;SDS011;5696;50.928;6.960;2022-08-05T05:48:24;32.30;;;29.45;;
11279;SDS011;5696;50.928;6.960;2022-08-05T05:50:50;31.45;;;28.58;;
11279;SDS011;5696;50.928;6.960;2022-08-05T05:53:16;33.33;;;30.40;;
11279;SDS011;5696;50.928;6.960;2022-08-05T05:55:42;33.63;;;30.58;;
11279;SDS011;5696;50.928;6.960;2022-08-05T05:58:07;38.35;;;34.40;;
11279;SDS011;5696;50.928;6.960;2022-08-05T06:00:33;37.92;;;34.33;;
11279;SDS011;5696;50.928;6.960;2022-08-05T06:02:59;36.65;;;33.30;;
11279;SDS011;5696;50.928;6.960;2022-08-05T06:05:26;39.80;;;35.90;;
11279;SDS011;5696;50.928;6.960;2022-08-05T06:07:52;38.40;;;34.65;;
11279;SDS011;5696;50.928;6.960;2022-08-05T06:10:17;38.60;;;35.00;;
11279;SDS011;5696;50.928;6.960;2022-08-05T06:12:43;39.42;;;35.75;;
11279;SDS011;5696;50.928;6.960;2022-08-05T06:15:09;39.72;;;35.72;;
11279;SDS011;5696;50.928;6.960;2022-08-05T06:17:35;38.70;;;34.97;;
11279;SDS011;5696;50.928;6.960;2022-08-05T06:20:01;39.92;;;36.20;;
11279;SDS011;5696;50.928;6.960;2022-08-05T06:22:29;42.22;;;38.13;;
11279;SDS011;5696;50.928;6.960;2022-08-05T06:24:58;41.63;;;37.53;;
11279;SDS011;5696;50.928;6.960;2022-08-05T06:27:24;46.40;;;41.60;;
11279;SDS011;5696;50.928;6.960;2022-08-05T06:29:50;43.80;;;39.35;;
11279;SDS011;5696;50.928;6.960;2022-08-05T06:32:16;46.03;;;41.30;;
11279;SDS011;5696;50.928;6.960;2022-08-05T06:34:42;47.70;;;42.58;;
11279;SDS011;5696;50.928;6.960;2022-08-05T06:37:08;46.63;;;39.75;;
11279;SDS011;5696;50.928;6.960;2022-08-05T06:39:33;44.47;;;39.67;;
11279;SDS011;5696;50.928;6.960;2022-08-05T06:41:59;43.92;;;39.15;;
11279;SDS011;5696;50.928;6.960;2022-08-05T06:44:27;44.53;;;39.80;;
11279;SDS011;5696;50.928;6.960;2022-08-05T06:46:54;46.22;;;41.05;;
11279;SDS011;5696;50.928;6.960;2022-08-05T06:49:20;47.72;;;41.53;;
11279;SDS011;5696;50.928;6.960;2022-08-05T06:51:46;46.60;;;40.80;;
11279;SDS011;5696;50.928;6.960;2022-08-05T06:54:12;51.58;;;43.97;;
11279;SDS011;5696;50.928;6.960;2022-08-05T06:56:38;50.10;;;44.63;;
11279;SDS011;5696;50.928;6.960;2022-08-05T06:59:04;51.78;;;45.33;;
11279;SDS011;5696;50.928;6.960;2022-08-05T07:01:30;51.13;;;44.13;;
11279;SDS011;5696;50.928;6.960;2022-08-05T07:03:56;51.15;;;43.10;;
11279;SDS011;5696;50.928;6.960;2022-08-05T07:06:21;51.70;;;42.10;;
11279;SDS011;5696;50.928;6.960;2022-08-05T07:08:47;51.45;;;42.80;;
11279;SDS011;5696;50.928;6.960;2022-08-05T07:11:13;53.90;;;44.38;;
11279;SDS011;5696;50.928;6.960;2022-08-05T07:13:40;52.95;;;42.10;;
11279;SDS011;5696;50.928;6.960;2022-08-05T07:16:34;47.75;;;41.75;;
11279;SDS011;5696;50.928;6.960;2022-08-05T07:19:18;53.53;;;44.10;;
11279;SDS011;5696;50.928;6.960;2022-08-05T07:21:45;55.53;;;44.05;;
11279;SDS011;5696;50.928;6.960;2022-08-05T07:24:11;55.88;;;44.42;;
11279;SDS011;5696;50.928;6.960;2022-08-05T07:26:37;58.85;;;46.50;;
11279;SDS011;5696;50.928;6.960;2022-08-05T07:29:03;57.45;;;46.50;;
11279;SDS011;5696;50.928;6.960;2022-08-05T07:31:39;56.95;;;45.17;;
11279;SDS011;5696;50.928;6.960;2022-08-05T07:34:05;57.22;;;44.08;;
11279;SDS011;5696;50.928;6.960;2022-08-05T07:36:31;57.63;;;46.42;;
11279;SDS011;5696;50.928;6.960;2022-08-05T07:38:58;52.63;;;42.47;;
11279;SDS011;5696;50.928;6.960;2022-08-05T07:41:28;49.28;;;41.53;;
11279;SDS011;5696;50.928;6.960;2022-08-05T07:43:54;53.33;;;42.70;;
11279;SDS011;5696;50.928;6.960;2022-08-05T07:46:21;55.22;;;45.30;;
11279;SDS011;5696;50.928;6.960;2022-08-05T07:48:46;49.92;;;43.30;;
11279;SDS011;5696;50.928;6.960;2022-08-05T07:51:12;50.40;;;44.40;;
11279;SDS011;5696;50.928;6.960;2022-08-05T07:53:39;53.17;;;43.78;;
11279;SDS011;5696;50.928;6.960;2022-08-05T07:56:06;52.15;;;44.22;;
11279;SDS011;5696;50.928;6.960;2022-08-05T07:58:31;51.53;;;44.35;;
11279;SDS011;5696;50.928;6.960;2022-08-05T08:00:57;53.90;;;46.70;;
11279;SDS011;5696;50.928;6.960;2022-08-05T08:03:23;52.40;;;45.53;;
11279;SDS011;5696;50.928;6.960;2022-08-05T08:05:49;50.28;;;44.80;;
11279;SDS011;5696;50.928;6.960;2022-08-05T08:08:18;50.78;;;45.30;;
11279;SDS011;5696;50.928;6.960;2022-08-05T08:10:43;52.58;;;46.97;;
11279;SDS011;5696;50.928;6.960;2022-08-05T08:13:09;54.30;;;48.40;;
11279;SDS011;5696;50.928;6.960;2022-08-05T08:15:35;49.05;;;43.70;;
11279;SDS011;5696;50.928;6.960;2022-08-05T08:18:01;38.80;;;34.80;;
11279;SDS011;5696;50.928;6.960;2022-08-05T08:20:28;38.95;;;34.88;;
11279;SDS011;5696;50.928;6.960;2022-08-05T08:22:54;39.28;;;35.30;;
11279;SDS011;5696;50.928;6.960;2022-08-05T08:25:23;44.75;;;40.10;;
11279;SDS011;5696;50.928;6.960;2022-08-05T08:27:49;47.47;;;42.78;;
11279;SDS011;5696;50.928;6.960;2022-08-05T08:30:14;49.05;;;44.08;;
11279;SDS011;5696;50.928;6.960;2022-08-05T08:32:40;51.28;;;46.03;;
11279;SDS011;5696;50.928;6.960;2022-08-05T08:35:06;48.85;;;43.83;;
11279;SDS011;5696;50.928;6.960;2022-08-05T08:37:33;51.05;;;45.85;;
11279;SDS011;5696;50.928;6.960;2022-08-05T08:39:59;50.38;;;45.03;;
11279;SDS011;5696;50.928;6.960;2022-08-05T08:42:24;53.25;;;47.70;;
11279;SDS011;5696;50.928;6.960;2022-08-05T08:44:54;51.03;;;45.97;;
11279;SDS011;5696;50.928;6.960;2022-08-05T08:47:21;45.67;;;41.17;;
11279;SDS011;5696;50.928;6.960;2022-08-05T08:49:50;45.25;;;40.83;;
11279;SDS011;5696;50.928;6.960;2022-08-05T08:52:18;44.15;;;39.83;;
11279;SDS011;5696;50.928;6.960;2022-08-05T08:54:48;46.00;;;41.45;;
11279;SDS011;5696;50.928;6.960;2022-08-05T08:57:18;46.75;;;42.08;;
11279;SDS011;5696;50.928;6.960;2022-08-05T08:59:45;47.30;;;42.45;;
11279;SDS011;5696;50.928;6.960;2022-08-05T09:02:10;47.03;;;42.50;;
11279;SDS011;5696;50.928;6.960;2022-08-05T09:04:36;48.25;;;43.17;;
11279;SDS011;5696;50.928;6.960;2022-08-05T09:07:03;46.92;;;42.38;;
11279;SDS011;5696;50.928;6.960;2022-08-05T09:09:33;45.80;;;41.30;;
11279;SDS011;5696;50.928;6.960;2022-08-05T09:11:59;42.08;;;37.95;;
11279;SDS011;5696;50.928;6.960;2022-08-05T09:14:26;41.17;;;37.40;;
11279;SDS011;5696;50.928;6.960;2022-08-05T09:16:52;38.53;;;34.72;;
11279;SDS011;5696;50.928;6.960;2022-08-05T09:19:18;36.92;;;33.35;;
11279;SDS011;5696;50.928;6.960;2022-08-05T09:21:44;31.85;;;28.65;;
11279;SDS011;5696;50.928;6.960;2022-08-05T09:24:16;27.10;;;24.30;;
11279;SDS011;5696;50.928;6.960;2022-08-05T09:26:45;20.15;;;18.17;;
11279;SDS011;5696;50.928;6.960;2022-08-05T09:29:12;22.45;;;20.25;;
11279;SDS011;5696;50.928;6.960;2022-08-05T09:31:38;20.67;;;18.67;;
11279;SDS011;5696;50.928;6.960;2022-08-05T09:34:17;19.67;;;17.85;;
11279;SDS011;5696;50.928;6.960;2022-08-05T09:36:46;19.95;;;17.95;;
11279;SDS011;5696;50.928;6.960;2022-08-05T09:39:15;16.58;;;15.05;;
11279;SDS011;5696;50.928;6.960;2022-08-05T09:41:57;16.52;;;14.82;;
11279;SDS011;5696;50.928;6.960;2022-08-05T09:44:31;13.80;;;12.35;;
11279;SDS011;5696;50.928;6.960;2022-08-05T09:49:47;14.85;;;13.48;;
11279;SDS011;5696;50.928;6.960;2022-08-05T09:52:21;14.15;;;12.85;;
11279;SDS011;5696;50.928;6.960;2022-08-05T09:55:06;13.52;;;12.43;;
11279;SDS011;5696;50.928;6.960;2022-08-05T09:57:44;13.98;;;12.70;;
11279;SDS011;5696;50.928;6.960;2022-08-05T10:00:13;14.38;;;13.05;;
11279;SDS011;5696;50.928;6.960;2022-08-05T10:02:43;14.07;;;12.65;;
11279;SDS011;5696;50.928;6.960;2022-08-05T10:05:17;15.05;;;13.75;;
11279;SDS011;5696;50.928;6.960;2022-08-05T10:07:51;14.13;;;12.90;;
11279;SDS011;5696;50.928;6.960;2022-08-05T10:11:12;14.02;;;12.80;;
11279;SDS011;5696;50.928;6.960;2022-08-05T10:13:24;13.55;;;12.52;;
11279;SDS011;5696;50.928;6.960;2022-08-05T10:15:52;15.38;;;13.63;;
11279;SDS011;5696;50.928;6.960;2022-08-05T10:18:18;12.00;;;11.07;;
11279;SDS011;5696;50.928;6.960;2022-08-05T10:20:50;12.00;;;10.80;;
11279;SDS011;5696;50.928;6.960;2022-08-05T10:23:35;11.35;;;10.20;;
11279;SDS011;5696;50.928;6.960;2022-08-05T10:26:05;11.25;;;10.15;;
11279;SDS011;5696;50.928;6.960;2022-08-05T10:28:33;11.13;;;10.20;;
11279;SDS011;5696;50.928;6.960;2022-08-05T10:31:10;10.63;;;9.77;;
11279;SDS011;5696;50.928;6.960;2022-08-05T10:33:36;11.30;;;10.20;;
11279;SDS011;5696;50.928;6.960;2022-08-05T10:36:03;8.73;;;7.93;;
11279;SDS011;5696;50.928;6.960;2022-08-05T10:38:30;9.27;;;8.57;;
11279;SDS011;5696;50.928;6.960;2022-08-05T10:41:06;8.68;;;7.90;;
11279;SDS011;5696;50.928;6.960;2022-08-05T10:43:50;9.30;;;8.50;;
11279;SDS011;5696;50.928;6.960;2022-08-05T10:49:14;8.25;;;7.45;;
11279;SDS011;5696;50.928;6.960;2022-08-05T10:51:44;7.78;;;7.07;;
11279;SDS011;5696;50.928;6.960;2022-08-05T10:54:11;8.40;;;7.20;;
11279;SDS011;5696;50.928;6.960;2022-08-05T10:56:51;7.50;;;6.80;;
11279;SDS011;5696;50.928;6.960;2022-08-05T10:59:27;6.85;;;6.20;;
11279;SDS011;5696;50.928;6.960;2022-08-05T11:02:06;9.63;;;6.18;;
11279;SDS011;5696;50.928;6.960;2022-08-05T11:04:46;5.10;;;4.68;;
11279;SDS011;5696;50.928;6.960;2022-08-05T11:07:14;5.50;;;4.70;;
11279;SDS011;5696;50.928;6.960;2022-08-05T11:09:45;4.90;;;4.10;;
11279;SDS011;5696;50.928;6.960;2022-08-05T11:18:05;6.60;;;5.13;;
11279;SDS011;5696;50.928;6.960;2022-08-05T11:20:48;7.65;;;5.15;;
11279;SDS011;5696;50.928;6.960;2022-08-05T11:26:08;6.32;;;4.60;;
11279;SDS011;5696;50.928;6.960;2022-08-05T11:28:39;4.70;;;4.20;;
11279;SDS011;5696;50.928;6.960;2022-08-05T11:33:34;6.50;;;4.10;;
11279;SDS011;5696;50.928;6.960;2022-08-05T11:36:14;5.20;;;4.53;;
11279;SDS011;5696;50.928;6.960;2022-08-05T11:43:43;5.10;;;4.63;;
11279;SDS011;5696;50.928;6.960;2022-08-05T11:46:16;8.70;;;5.25;;
11279;SDS011;5696;50.928;6.960;2022-08-05T11:48:42;6.95;;;4.80;;
11279;SDS011;5696;50.928;6.960;2022-08-05T11:51:08;6.07;;;4.93;;
11279;SDS011;5696;50.928;6.960;2022-08-05T11:53:34;5.55;;;4.88;;
11279;SDS011;5696;50.928;6.960;2022-08-05T11:56:01;5.13;;;4.38;;
11279;SDS011;5696;50.928;6.960;2022-08-05T11:58:34;4.90;;;3.78;;
11279;SDS011;5696;50.928;6.960;2022-08-05T12:01:06;4.72;;;3.47;;
11279;SDS011;5696;50.928;6.960;2022-08-05T12:03:44;3.70;;;3.40;;
11279;SDS011;5696;50.928;6.960;2022-08-05T12:06:22;4.38;;;3.70;;
11279;SDS011;5696;50.928;6.960;2022-08-05T12:08:50;6.25;;;3.80;;
11279;SDS011;5696;50.928;6.960;2022-08-05T12:11:19;5.07;;;3.53;;
11279;SDS011;5696;50.928;6.960;2022-08-05T12:13:53;4.63;;;3.58;;
11279;SDS011;5696;50.928;6.960;2022-08-05T12:16:32;4.00;;;3.70;;
11279;SDS011;5696;50.928;6.960;2022-08-05T12:19:02;3.85;;;3.30;;
11279;SDS011;5696;50.928;6.960;2022-08-05T12:21:33;4.82;;;3.80;;
11279;SDS011;5696;50.928;6.960;2022-08-05T12:24:10;3.30;;;3.00;;
11279;SDS011;5696;50.928;6.960;2022-08-05T12:26:40;3.42;;;3.13;;
11279;SDS011;5696;50.928;6.960;2022-08-05T12:31:52;3.72;;;3.40;;
11279;SDS011;5696;50.928;6.960;2022-08-05T12:34:24;3.28;;;2.97;;
11279;SDS011;5696;50.928;6.960;2022-08-05T12:36:55;5.07;;;3.72;;
11279;SDS011;5696;50.928;6.960;2022-08-05T12:39:24;4.70;;;3.33;;
11279;SDS011;5696;50.928;6.960;2022-08-05T12:41:55;3.95;;;3.08;;
11279;SDS011;5696;50.928;6.960;2022-08-05T12:44:24;3.60;;;3.05;;
11279;SDS011;5696;50.928;6.960;2022-08-05T12:46:51;3.22;;;2.92;;
11279;SDS011;5696;50.928;6.960;2022-08-05T12:49:18;3.50;;;3.20;;
11279;SDS011;5696;50.928;6.960;2022-08-05T12:54:24;5.15;;;3.38;;
11279;SDS011;5696;50.928;6.960;2022-08-05T12:56:52;4.07;;;3.70;;
11279;SDS011;5696;50.928;6.960;2022-08-05T12:59:24;3.70;;;3.40;;
11279;SDS011;5696;50.928;6.960;2022-08-05T13:02:02;6.63;;;4.00;;
11279;SDS011;5696;50.928;6.960;2022-08-05T13:04:34;5.18;;;4.20;;
11279;SDS011;5696;50.928;6.960;2022-08-05T13:07:07;5.28;;;4.25;;
11279;SDS011;5696;50.928;6.960;2022-08-05T13:09:37;6.32;;;4.28;;
11279;SDS011;5696;50.928;6.960;2022-08-05T13:12:05;6.15;;;4.40;;
11279;SDS011;5696;50.928;6.960;2022-08-05T13:20:31;5.22;;;4.63;;
11279;SDS011;5696;50.928;6.960;2022-08-05T13:22:37;4.50;;;4.10;;
11279;SDS011;5696;50.928;6.960;2022-08-05T13:25:05;6.47;;;4.40;;
11279;SDS011;5696;50.928;6.960;2022-08-05T13:27:45;6.32;;;4.85;;
11279;SDS011;5696;50.928;6.960;2022-08-05T13:30:13;5.53;;;4.68;;
11279;SDS011;5696;50.928;6.960;2022-08-05T13:32:40;5.20;;;4.70;;
11279;SDS011;5696;50.928;6.960;2022-08-05T13:35:06;5.78;;;5.15;;
11279;SDS011;5696;50.928;6.960;2022-08-05T13:37:34;6.95;;;4.70;;
11279;SDS011;5696;50.928;6.960;2022-08-05T13:40:00;5.90;;;4.63;;
11279;SDS011;5696;50.928;6.960;2022-08-05T13:42:26;6.07;;;4.82;;
11279;SDS011;5696;50.928;6.960;2022-08-05T13:44:52;6.72;;;4.97;;
11279;SDS011;5696;50.928;6.960;2022-08-05T13:47:18;5.32;;;4.82;;
11279;SDS011;5696;50.928;6.960;2022-08-05T13:49:45;7.47;;;5.35;;
11279;SDS011;5696;50.928;6.960;2022-08-05T13:52:11;5.85;;;5.10;;
11279;SDS011;5696;50.928;6.960;2022-08-05T13:54:41;7.28;;;5.30;;
11279;SDS011;5696;50.928;6.960;2022-08-05T13:57:08;5.78;;;5.20;;
11279;SDS011;5696;50.928;6.960;2022-08-05T13:59:35;6.25;;;5.60;;
11279;SDS011;5696;50.928;6.960;2022-08-05T14:02:03;6.05;;;5.47;;
11279;SDS011;5696;50.928;6.960;2022-08-05T14:04:31;6.63;;;5.28;;
11279;SDS011;5696;50.928;6.960;2022-08-05T14:07:20;6.35;;;4.82;;
11279;SDS011;5696;50.928;6.960;2022-08-05T14:09:50;5.57;;;4.72;;
11279;SDS011;5696;50.928;6.960;2022-08-05T14:12:16;4.68;;;4.28;;
11279;SDS011;5696;50.928;6.960;2022-08-05T14:14:42;4.80;;;4.40;;
11279;SDS011;5696;50.928;6.960;2022-08-05T14:17:07;6.45;;;4.40;;
11279;SDS011;5696;50.928;6.960;2022-08-05T14:19:33;4.57;;;4.13;;
11279;SDS011;5696;50.928;6.960;2022-08-05T14:21:59;5.15;;;4.63;;
11279;SDS011;5696;50.928;6.960;2022-08-05T14:24:24;5.15;;;4.68;;
11279;SDS011;5696;50.928;6.960;2022-08-05T14:26:50;5.28;;;4.68;;
11279;SDS011;5696;50.928;6.960;2022-08-05T14:29:16;5.80;;;4.18;;
11279;SDS011;5696;50.928;6.960;2022-08-05T14:31:41;6.30;;;4.40;;
11279;SDS011;5696;50.928;6.960;2022-08-05T14:34:08;7.18;;;4.72;;
11279;SDS011;5696;50.928;6.960;2022-08-05T14:36:34;7.85;;;4.70;;
11279;SDS011;5696;50.928;6.960;2022-08-05T14:38:59;4.80;;;4.40;;
11279;SDS011;5696;50.928;6.960;2022-08-05T14:41:25;4.78;;;3.97;;
11279;SDS011;5696;50.928;6.960;2022-08-05T14:43:51;4.60;;;4.25;;
11279;SDS011;5696;50.928;6.960;2022-08-05T14:46:18;3.38;;;3.05;;
11279;SDS011;5696;50.928;6.960;2022-08-05T14:48:44;4.32;;;3.00;;
11279;SDS011;5696;50.928;6.960;2022-08-05T14:51:10;3.17;;;2.55;;
11279;SDS011;5696;50.928;6.960;2022-08-05T14:53:36;3.03;;;2.30;;
11279;SDS011;5696;50.928;6.960;2022-08-05T14:56:01;3.60;;;2.45;;
11279;SDS011;5696;50.928;6.960;2022-08-05T14:58:27;2.25;;;2.08;;
11279;SDS011;5696;50.928;6.960;2022-08-05T15:00:53;2.20;;;2.00;;
11279;SDS011;5696;50.928;6.960;2022-08-05T15:03:18;2.83;;;1.88;;
11279;SDS011;5696;50.928;6.960;2022-08-05T15:05:44;1.90;;;1.30;;
11279;SDS011;5696;50.928;6.960;2022-08-05T15:08:10;2.17;;;1.50;;
11279;SDS011;5696;50.928;6.960;2022-08-05T15:10:35;2.75;;;1.70;;
11279;SDS011;5696;50.928;6.960;2022-08-05T15:13:01;2.45;;;1.73;;
11279;SDS011;5696;50.928;6.960;2022-08-05T15:15:28;4.80;;;2.05;;
11279;SDS011;5696;50.928;6.960;2022-08-05T15:17:54;3.03;;;1.60;;
11279;SDS011;5696;50.928;6.960;2022-08-05T15:20:20;3.70;;;2.40;;
11279;SDS011;5696;50.928;6.960;2022-08-05T15:22:46;1.85;;;1.63;;
11279;SDS011;5696;50.928;6.960;2022-08-05T15:25:12;3.03;;;2.10;;
11279;SDS011;5696;50.928;6.960;2022-08-05T15:27:38;2.25;;;1.77;;
11279;SDS011;5696;50.928;6.960;2022-08-05T15:30:04;2.03;;;1.92;;
11279;SDS011;5696;50.928;6.960;2022-08-05T15:32:30;2.78;;;1.73;;
11279;SDS011;5696;50.928;6.960;2022-08-05T15:34:56;2.08;;;1.88;;
11279;SDS011;5696;50.928;6.960;2022-08-05T15:37:22;2.05;;;1.80;;
11279;SDS011;5696;50.928;6.960;2022-08-05T15:39:48;1.75;;;1.60;;
11279;SDS011;5696;50.928;6.960;2022-08-05T15:42:14;8.75;;;1.70;;
11279;SDS011;5696;50.928;6.960;2022-08-05T15:44:40;3.13;;;1.80;;
11279;SDS011;5696;50.928;6.960;2022-08-05T15:47:05;3.55;;;2.05;;
11279;SDS011;5696;50.928;6.960;2022-08-05T15:49:32;2.80;;;1.80;;
11279;SDS011;5696;50.928;6.960;2022-08-05T15:51:58;4.07;;;2.17;;
11279;SDS011;5696;50.928;6.960;2022-08-05T15:54:24;3.20;;;1.80;;
11279;SDS011;5696;50.928;6.960;2022-08-05T15:56:50;2.45;;;2.17;;
11279;SDS011;5696;50.928;6.960;2022-08-05T15:59:16;2.20;;;2.00;;
11279;SDS011;5696;50.928;6.960;2022-08-05T16:01:41;4.93;;;2.40;;
11279;SDS011;5696;50.928;6.960;2022-08-05T16:04:07;1.80;;;1.70;;
11279;SDS011;5696;50.928;6.960;2022-08-05T16:06:33;2.42;;;2.20;;
11279;SDS011;5696;50.928;6.960;2022-08-05T16:09:00;3.20;;;2.28;;
11279;SDS011;5696;50.928;6.960;2022-08-05T16:11:26;3.22;;;2.20;;
11279;SDS011;5696;50.928;6.960;2022-08-05T16:13:52;2.90;;;2.60;;
11279;SDS011;5696;50.928;6.960;2022-08-05T16:16:17;3.53;;;2.72;;
11279;SDS011;5696;50.928;6.960;2022-08-05T16:18:44;3.58;;;2.30;;
11279;SDS011;5696;50.928;6.960;2022-08-05T16:21:10;2.55;;;2.35;;
11279;SDS011;5696;50.928;6.960;2022-08-05T16:23:37;2.83;;;2.40;;
11279;SDS011;5696;50.928;6.960;2022-08-05T16:26:03;5.38;;;2.63;;
11279;SDS011;5696;50.928;6.960;2022-08-05T16:28:31;3.67;;;2.78;;
11279;SDS011;5696;50.928;6.960;2022-08-05T16:30:57;4.05;;;2.90;;
11279;SDS011;5696;50.928;6.960;2022-08-05T16:33:22;3.20;;;2.70;;
11279;SDS011;5696;50.928;6.960;2022-08-05T16:35:49;4.68;;;2.90;;
11279;SDS011;5696;50.928;6.960;2022-08-05T16:38:14;2.92;;;2.45;;
11279;SDS011;5696;50.928;6.960;2022-08-05T16:40:43;5.47;;;3.08;;
11279;SDS011;5696;50.928;6.960;2022-08-05T16:43:08;3.28;;;2.40;;
11279;SDS011;5696;50.928;6.960;2022-08-05T16:45:34;3.70;;;2.80;;
11279;SDS011;5696;50.928;6.960;2022-08-05T16:48:02;2.88;;;2.42;;
11279;SDS011;5696;50.928;6.960;2022-08-05T16:50:28;2.38;;;2.13;;
11279;SDS011;5696;50.928;6.960;2022-08-05T16:52:54;2.40;;;2.20;;
11279;SDS011;5696;50.928;6.960;2022-08-05T16:55:19;2.90;;;1.83;;
11279;SDS011;5696;50.928;6.960;2022-08-05T16:57:45;3.58;;;2.38;;
11279;SDS011;5696;50.928;6.960;2022-08-05T17:00:11;2.38;;;1.85;;
11279;SDS011;5696;50.928;6.960;2022-08-05T17:02:37;2.10;;;1.90;;
11279;SDS011;5696;50.928;6.960;2022-08-05T17:05:03;2.83;;;1.63;;
11279;SDS011;5696;50.928;6.960;2022-08-05T17:07:28;1.73;;;1.63;;
11279;SDS011;5696;50.928;6.960;2022-08-05T17:09:54;4.00;;;1.83;;
11279;SDS011;5696;50.928;6.960;2022-08-05T17:12:20;2.72;;;1.98;;
11279;SDS011;5696;50.928;6.960;2022-08-05T17:14:45;1.90;;;1.40;;
11279;SDS011;5696;50.928;6.960;2022-08-05T17:17:11;2.25;;;1.70;;
11279;SDS011;5696;50.928;6.960;2022-08-05T17:19:37;2.38;;;1.70;;
11279;SDS011;5696;50.928;6.960;2022-08-05T17:22:02;3.17;;;1.60;;
11279;SDS011;5696;50.928;6.960;2022-08-05T17:24:28;2.10;;;1.80;;
11279;SDS011;5696;50.928;6.960;2022-08-05T17:26:55;3.22;;;1.90;;
11279;SDS011;5696;50.928;6.960;2022-08-05T17:29:21;1.80;;;1.70;;
11279;SDS011;5696;50.928;6.960;2022-08-05T17:31:47;4.70;;;1.60;;
11279;SDS011;5696;50.928;6.960;2022-08-05T17:34:13;2.13;;;1.50;;
11279;SDS011;5696;50.928;6.960;2022-08-05T17:36:39;2.20;;;2.00;;
11279;SDS011;5696;50.928;6.960;2022-08-05T17:39:04;3.75;;;1.60;;
11279;SDS011;5696;50.928;6.960;2022-08-05T17:41:30;1.77;;;1.48;;
11279;SDS011;5696;50.928;6.960;2022-08-05T17:43:55;3.30;;;1.40;;
11279;SDS011;5696;50.928;6.960;2022-08-05T17:46:21;3.28;;;1.60;;
11279;SDS011;5696;50.928;6.960;2022-08-05T17:48:47;2.53;;;1.58;;
11279;SDS011;5696;50.928;6.960;2022-08-05T17:51:13;1.98;;;1.70;;
11279;SDS011;5696;50.928;6.960;2022-08-05T17:53:39;2.40;;;1.58;;
11279;SDS011;5696;50.928;6.960;2022-08-05T17:56:04;1.88;;;1.40;;
11279;SDS011;5696;50.928;6.960;2022-08-05T17:58:30;2.05;;;1.35;;
11279;SDS011;5696;50.928;6.960;2022-08-05T18:00:56;4.78;;;1.65;;
11279;SDS011;5696;50.928;6.960;2022-08-05T18:03:21;1.65;;;1.55;;
11279;SDS011;5696;50.928;6.960;2022-08-05T18:05:48;1.70;;;1.33;;
11279;SDS011;5696;50.928;6.960;2022-08-05T18:08:14;2.45;;;1.40;;
11279;SDS011;5696;50.928;6.960;2022-08-05T18:10:40;2.28;;;1.10;;
11279;SDS011;5696;50.928;6.960;2022-08-05T18:13:05;2.92;;;1.65;;
11279;SDS011;5696;50.928;6.960;2022-08-05T18:15:31;2.40;;;1.67;;
11279;SDS011;5696;50.928;6.960;2022-08-05T18:17:58;3.75;;;1.98;;
11279;SDS011;5696;50.928;6.960;2022-08-05T18:20:25;4.60;;;1.80;;
11279;SDS011;5696;50.928;6.960;2022-08-05T18:22:50;3.10;;;1.80;;
11279;SDS011;5696;50.928;6.960;2022-08-05T18:25:16;2.63;;;1.50;;
11279;SDS011;5696;50.928;6.960;2022-08-05T18:27:42;2.05;;;1.50;;
11279;SDS011;5696;50.928;6.960;2022-08-05T18:30:08;2.53;;;1.63;;
11279;SDS011;5696;50.928;6.960;2022-08-05T18:32:34;1.70;;;1.60;;
11279;SDS011;5696;50.928;6.960;2022-08-05T18:35:00;2.72;;;1.40;;
11279;SDS011;5696;50.928;6.960;2022-08-05T18:37:25;2.95;;;2.05;;
11279;SDS011;5696;50.928;6.960;2022-08-05T18:39:51;2.90;;;1.83;;
11279;SDS011;5696;50.928;6.960;2022-08-05T18:42:16;5.20;;;2.10;;
11279;SDS011;5696;50.928;6.960;2022-08-05T18:44:42;1.88;;;1.77;;
11279;SDS011;5696;50.928;6.960;2022-08-05T18:47:08;2.53;;;2.00;;
11279;SDS011;5696;50.928;6.960;2022-08-05T18:49:33;2.22;;;2.00;;
11279;SDS011;5696;50.928;6.960;2022-08-05T18:52:17;2.70;;;1.70;;
11279;SDS011;5696;50.928;6.960;2022-08-05T18:55:02;2.90;;;1.63;;
11279;SDS011;5696;50.928;6.960;2022-08-05T18:57:29;3.13;;;2.13;;
11279;SDS011;5696;50.928;6.960;2022-08-05T18:59:55;2.72;;;1.60;;
11279;SDS011;5696;50.928;6.960;2022-08-05T19:02:21;2.28;;;1.50;;
11279;SDS011;5696;50.928;6.960;2022-08-05T19:04:48;1.52;;;1.40;;
11279;SDS011;5696;50.928;6.960;2022-08-05T19:07:14;2.95;;;1.40;;
11279;SDS011;5696;50.928;6.960;2022-08-05T19:09:39;3.33;;;1.70;;
11279;SDS011;5696;50.928;6.960;2022-08-05T19:12:05;1.77;;;1.50;;
11279;SDS011;5696;50.928;6.960;2022-08-05T19:14:31;2.30;;;1.40;;
11279;SDS011;5696;50.928;6.960;2022-08-05T19:17:06;1.23;;;1.13;;
11279;SDS011;5696;50.928;6.960;2022-08-05T19:19:33;1.17;;;1.00;;
11279;SDS011;5696;50.928;6.960;2022-08-05T19:21:58;3.05;;;1.45;;
11279;SDS011;5696;50.928;6.960;2022-08-05T19:24:24;2.45;;;1.30;;
11279;SDS011;5696;50.928;6.960;2022-08-05T19:26:50;1.92;;;1.30;;
11279;SDS011;5696;50.928;6.960;2022-08-05T19:29:15;2.53;;;1.58;;
11279;SDS011;5696;50.928;6.960;2022-08-05T19:31:41;2.25;;;1.48;;
11279;SDS011;5696;50.928;6.960;2022-08-05T19:34:07;1.63;;;1.05;;
11279;SDS011;5696;50.928;6.960;2022-08-05T19:36:32;2.22;;;1.40;;
11279;SDS011;5696;50.928;6.960;2022-08-05T19:38:58;3.67;;;1.73;;
11279;SDS011;5696;50.928;6.960;2022-08-05T19:41:25;2.50;;;2.08;;
11279;SDS011;5696;50.928;6.960;2022-08-05T19:43:50;5.07;;;2.70;;
11279;SDS011;5696;50.928;6.960;2022-08-05T19:46:16;2.05;;;1.80;;
11279;SDS011;5696;50.928;6.960;2022-08-05T19:48:42;2.10;;;1.90;;
11279;SDS011;5696;50.928;6.960;2022-08-05T19:51:08;1.73;;;1.63;;
11279;SDS011;5696;50.928;6.960;2022-08-05T19:53:34;2.88;;;1.70;;
11279;SDS011;5696;50.928;6.960;2022-08-05T19:55:59;2.50;;;1.30;;
11279;SDS011;5696;50.928;6.960;2022-08-05T19:58:25;2.33;;;1.10;;
11279;SDS011;5696;50.928;6.960;2022-08-05T20:00:51;4.03;;;1.42;;
11279;SDS011;5696;50.928;6.960;2022-08-05T20:03:17;2.63;;;1.77;;
11279;SDS011;5696;50.928;6.960;2022-08-05T20:05:43;3.47;;;1.52;;
11279;SDS011;5696;50.928;6.960;2022-08-05T20:08:09;2.13;;;1.52;;
11279;SDS011;5696;50.928;6.960;2022-08-05T20:10:34;2.40;;;1.40;;
11279;SDS011;5696;50.928;6.960;2022-08-05T20:13:00;3.00;;;1.60;;
11279;SDS011;5696;50.928;6.960;2022-08-05T20:15:26;1.50;;;1.27;;
11279;SDS011;5696;50.928;6.960;2022-08-05T20:17:53;2.13;;;1.55;;
11279;SDS011;5696;50.928;6.960;2022-08-05T20:20:19;1.52;;;1.40;;
11279;SDS011;5696;50.928;6.960;2022-08-05T20:22:46;2.83;;;1.40;;
11279;SDS011;5696;50.928;6.960;2022-08-05T20:25:12;1.40;;;1.30;;
11279;SDS011;5696;50.928;6.960;2022-08-05T20:27:38;2.97;;;1.30;;